Terminal Aerodrome Forecast
Issued by NWS

Home | Current Version | Previous Version | Text Only | Print | Product List | Glossary On
Versions: 1 2 3 4 5 6 7 8 9 10 11 12 13 14 15 16 17
327
FTUS42 KMHX 221721
TAFOAJ
TAF
KOAJ 221721Z 2218/2318 00000KT P6SM VCSH SCT030 OVC080
     FM230000 20006KT P6SM SCT250
     FM230900 22005KT 5SM BR SCT100
     FM231300 22008KT P6SM BKN150
      AMD LTD TO CLD VIS AND WIND=

USA.gov is the U.S. government's official web portal to all federal, state and local government web resources and services.